TimeEST,TemperatureF,Dew PointF,Humidity,Sea Level PressureIn,VisibilityMPH,Wind Direction,Wind SpeedMPH,Gust SpeedMPH,PrecipitationIn,Events,Conditions,WindDirDegrees,DateUTC
12:15 AM,46.6,44.8,93,29.87,7.0,SSW,3.5,-,N/A,Rain,Light Rain,200,2012-12-17 05:15:00
12:35 AM,46.4,44.6,93,29.86,10.0,SSW,3.5,-,N/A,,Overcast,210,2012-12-17 05:35:00
12:55 AM,46.4,44.1,92,29.83,10.0,SSE,3.5,-,N/A,,Overcast,150,2012-12-17 05:55:00
1:15 AM,46.4,44.2,92,29.84,10.0,SSW,4.6,-,N/A,,Overcast,200,2012-12-17 06:15:00
1:35 AM,46.4,43.7,90,29.82,7.0,South,4.6,-,N/A,,Overcast,180,2012-12-17 06:35:00
1:55 AM,46.0,43.7,92,29.82,10.0,Calm,Calm,-,N/A,,Overcast,0,2012-12-17 06:55:00
2:15 AM,46.8,43.9,90,29.82,10.0,Calm,Calm,-,N/A,,Overcast,0,2012-12-17 07:15:00
2:35 AM,46.6,43.3,88,29.82,10.0,West,3.5,-,N/A,,Scattered Clouds,260,2012-12-17 07:35:00
2:55 AM,45.9,43.3,91,29.81,10.0,Calm,Calm,-,N/A,,Scattered Clouds,0,2012-12-17 07:55:00
3:15 AM,46.4,43.3,89,29.81,10.0,NW,3.5,-,N/A,,Clear,310,2012-12-17 08:15:00
3:35 AM,45.5,42.8,90,29.82,10.0,Calm,Calm,-,N/A,,Clear,0,2012-12-17 08:35:00
3:55 AM,45.7,43.5,92,29.81,10.0,Calm,Calm,-,N/A,,Clear,0,2012-12-17 08:55:00
4:15 AM,45.3,43.2,92,29.81,10.0,Calm,Calm,-,N/A,,Clear,0,2012-12-17 09:15:00
4:35 AM,43.9,42.1,93,29.81,0.2,Calm,Calm,-,N/A,Fog,Fog,0,2012-12-17 09:35:00
4:55 AM,44.6,42.8,93,29.81,1.0,Calm,Calm,-,N/A,,Overcast,0,2012-12-17 09:55:00
5:15 AM,44.6,42.8,93,29.80,2.5,Calm,Calm,-,N/A,,Scattered Clouds,0,2012-12-17 10:15:00
5:35 AM,44.8,43.2,94,29.82,10.0,Calm,Calm,-,N/A,,Clear,0,2012-12-17 10:35:00
5:55 AM,43.7,42.3,95,29.81,0.2,Calm,Calm,-,N/A,Fog,Fog,0,2012-12-17 10:55:00
6:15 AM,44.4,42.8,94,29.82,4.0,Calm,Calm,-,N/A,,Scattered Clouds,0,2012-12-17 11:15:00
6:35 AM,44.6,42.8,93,29.82,10.0,Calm,Calm,-,N/A,,Clear,0,2012-12-17 11:35:00
6:55 AM,44.8,43.2,94,29.82,10.0,Calm,Calm,-,N/A,,Clear,0,2012-12-17 11:55:00
7:15 AM,44.8,43.3,95,29.82,10.0,WNW,3.5,-,N/A,,Clear,300,2012-12-17 12:15:00
7:35 AM,43.9,42.1,93,29.84,10.0,Calm,Calm,-,N/A,,Clear,0,2012-12-17 12:35:00
7:55 AM,43.3,40.6,90,29.85,0.8,South,3.5,-,N/A,,Mostly Cloudy,170,2012-12-17 12:55:00
8:15 AM,44.1,42.3,93,29.84,10.0,Calm,Calm,-,N/A,,Scattered Clouds,0,2012-12-17 13:15:00
8:35 AM,43.9,42.1,93,29.84,10.0,Calm,Calm,-,N/A,,Clear,0,2012-12-17 13:35:00
8:55 AM,42.8,41.0,93,29.82,0.2,Calm,Calm,-,N/A,Fog,Fog,0,2012-12-17 13:55:00
9:15 AM,43.7,42.1,94,29.83,0.5,Calm,Calm,-,N/A,Fog,Fog,0,2012-12-17 14:15:00
9:35 AM,44.6,43.0,94,29.83,7.0,Calm,Calm,-,N/A,,Scattered Clouds,0,2012-12-17 14:35:00
9:55 AM,43.9,42.4,95,29.83,2.5,Calm,Calm,-,N/A,,Scattered Clouds,0,2012-12-17 14:55:00
10:15 AM,45.9,44.1,93,29.83,10.0,Calm,Calm,-,N/A,,Scattered Clouds,0,2012-12-17 15:15:00
10:35 AM,47.1,43.9,88,29.81,3.0,ESE,3.5,-,N/A,,Scattered Clouds,120,2012-12-17 15:35:00
10:55 AM,46.8,44.8,93,29.81,7.0,Calm,Calm,-,N/A,,Mostly Cloudy,0,2012-12-17 15:55:00
11:15 AM,46.8,44.6,92,29.81,10.0,Calm,Calm,-,N/A,,Overcast,0,2012-12-17 16:15:00
11:35 AM,47.7,44.1,87,29.80,10.0,SSE,3.5,-,N/A,,Overcast,160,2012-12-17 16:35:00
11:55 AM,47.7,44.8,90,29.79,1.5,Calm,Calm,-,N/A,,Overcast,0,2012-12-17 16:55:00
12:15 PM,48.4,45.9,91,29.77,10.0,SSE,3.5,-,N/A,,Scattered Clouds,150,2012-12-17 17:15:00
12:35 PM,48.7,45.5,89,29.76,10.0,Calm,Calm,-,N/A,,Mostly Cloudy,0,2012-12-17 17:35:00
12:55 PM,48.6,45.7,90,29.75,10.0,Calm,Calm,-,N/A,,Overcast,0,2012-12-17 17:55:00
1:15 PM,48.7,46.0,90,29.74,10.0,SE,5.8,-,N/A,,Overcast,140,2012-12-17 18:15:00
1:35 PM,47.5,45.1,92,29.72,10.0,SE,5.8,-,N/A,,Overcast,140,2012-12-17 18:35:00
1:55 PM,47.3,45.1,92,29.71,10.0,SSE,3.5,-,N/A,,Overcast,160,2012-12-17 18:55:00
2:15 PM,47.1,45.0,92,29.70,7.0,Calm,Calm,-,N/A,,Overcast,0,2012-12-17 19:15:00
2:35 PM,46.9,45.1,93,29.70,0.5,SSE,3.5,-,N/A,Fog,Fog,160,2012-12-17 19:35:00
2:55 PM,46.6,44.8,93,29.69,0.2,Calm,Calm,-,N/A,Fog,Fog,0,2012-12-17 19:55:00
3:15 PM,46.9,45.3,94,29.70,0.8,Calm,Calm,-,N/A,,Overcast,0,2012-12-17 20:15:00
3:35 PM,46.8,45.1,94,29.68,0.2,South,3.5,-,N/A,Fog,Fog,170,2012-12-17 20:35:00
3:55 PM,46.8,45.1,94,29.68,0.2,SSE,3.5,-,N/A,Fog,Fog,150,2012-12-17 20:55:00
4:15 PM,46.8,45.1,94,29.69,0.2,SSE,4.6,-,N/A,Fog,Fog,160,2012-12-17 21:15:00
4:35 PM,46.6,45.0,94,29.68,0.2,Calm,Calm,-,N/A,Fog,Fog,0,2012-12-17 21:35:00
4:55 PM,46.6,45.0,94,29.66,0.5,South,3.5,-,N/A,Fog,Fog,180,2012-12-17 21:55:00
7:35 PM,46.2,44.8,95,29.64,10.0,SSE,3.5,-,N/A,,Scattered Clouds,150,2012-12-18 00:35:00
7:55 PM,46.9,45.5,95,29.67,10.0,NW,5.8,-,N/A,Rain,Light Rain,310,2012-12-18 00:55:00
8:15 PM,47.5,45.0,91,29.67,10.0,NNW,4.6,-,N/A,Rain,Light Rain,330,2012-12-18 01:15:00
8:35 PM,49.1,43.7,82,29.66,10.0,Calm,Calm,-,N/A,,Overcast,0,2012-12-18 01:35:00
8:55 PM,49.5,43.5,80,29.66,10.0,Calm,Calm,-,N/A,,Overcast,0,2012-12-18 01:55:00
9:15 PM,47.3,43.5,87,29.65,10.0,Calm,Calm,-,N/A,,Mostly Cloudy,0,2012-12-18 02:15:00
9:35 PM,49.3,40.6,72,29.64,10.0,WSW,6.9,19.6,N/A,,Scattered Clouds,240,2012-12-18 02:35:00
9:55 PM,49.8,39.6,68,29.64,10.0,West,5.8,-,N/A,,Mostly Cloudy,280,2012-12-18 02:55:00
10:15 PM,49.8,40.5,70,29.65,10.0,West,11.5,17.3,N/A,Rain,Rain,280,2012-12-18 03:15:00
10:35 PM,47.5,39.4,73,29.66,10.0,West,11.5,21.9,0.01,Rain,Light Rain,280,2012-12-18 03:35:00
10:55 PM,46.8,38.8,74,29.68,10.0,WNW,12.7,26.5,0.01,,Overcast,290,2012-12-18 03:55:00
11:15 PM,46.6,38.5,73,29.68,10.0,WNW,8.1,-,N/A,,Overcast,290,2012-12-18 04:15:00
11:35 PM,46.4,38.5,74,29.68,10.0,WNW,6.9,16.1,N/A,,Overcast,290,2012-12-18 04:35:00
11:55 PM,45.5,38.1,75,29.67,10.0,NW,5.8,-,N/A,,Mostly Cloudy,310,2012-12-18 04:55:00